createdAt,value
2018-08-12T00:00:50.296Z,101287.16
2018-08-12T00:03:17.337Z,101284.80
2018-08-12T00:05:44.708Z,101283.42
2018-08-12T00:08:11.724Z,101283.03
2018-08-12T00:10:38.756Z,101282.73
2018-08-12T00:13:06.048Z,101267.83
2018-08-12T00:15:33.132Z,101267.04
2018-08-12T00:18:00.169Z,101263.18
2018-08-12T00:20:27.252Z,101260.83
2018-08-12T00:22:54.269Z,101252.69
2018-08-12T00:25:22.607Z,101250.95
2018-08-12T00:27:49.960Z,101250.42
2018-08-12T00:30:17.739Z,101249.45
2018-08-12T00:32:44.785Z,101248.19
2018-08-12T00:35:13.044Z,101259.59
2018-08-12T00:37:40.619Z,101252.56
2018-08-12T00:40:09.007Z,101253.83
2018-08-12T00:42:36.248Z,101251.52
2018-08-12T00:45:04.761Z,101248.71
2018-08-12T00:47:31.806Z,101246.52
2018-08-12T00:49:58.861Z,101247.67
2018-08-12T00:52:25.878Z,101242.08
2018-08-12T00:54:52.918Z,101252.39
2018-08-12T00:57:20.060Z,101244.24
2018-08-12T00:59:47.110Z,101243.09
2018-08-12T01:02:14.124Z,101241.83
2018-08-12T01:04:41.499Z,101235.52
2018-08-12T01:07:08.516Z,101242.44
2018-08-12T01:09:35.611Z,101238.98
2018-08-12T01:12:02.651Z,101236.74
2018-08-12T01:14:29.745Z,101233.93
2018-08-12T01:16:56.771Z,101235.01
2018-08-12T01:19:23.883Z,101232.59
2018-08-12T01:21:50.883Z,101231.47
2018-08-12T01:24:18.002Z,101235.00
2018-08-12T01:26:44.999Z,101232.86
2018-08-12T01:29:12.032Z,101235.12
2018-08-12T01:31:39.083Z,101238.33
2018-08-12T01:34:06.144Z,101238.73
2018-08-12T01:36:33.155Z,101226.64
2018-08-12T01:39:00.264Z,101225.09
2018-08-12T01:41:27.289Z,101226.35
2018-08-12T01:43:54.299Z,101224.56
2018-08-12T01:46:21.527Z,101223.58
2018-08-12T01:48:48.525Z,101212.25
2018-08-12T01:51:15.549Z,101226.98
2018-08-12T01:53:42.568Z,101217.02
2018-08-12T01:56:09.665Z,101217.91
2018-08-12T01:58:36.754Z,101221.61
2018-08-12T02:01:03.963Z,101222.17
2018-08-12T02:03:31.012Z,101224.02
2018-08-12T02:05:58.012Z,101219.84
2018-08-12T02:08:25.029Z,101222.08
2018-08-12T02:10:52.021Z,101223.42
2018-08-12T02:13:19.040Z,101222.00
2018-08-12T02:15:46.169Z,101226.92
2018-08-12T02:18:13.260Z,101226.45
2018-08-12T02:20:40.371Z,101217.73
2018-08-12T02:23:07.387Z,101213.85
2018-08-12T02:25:34.442Z,101212.02
2018-08-12T02:28:01.529Z,101207.37
2018-08-12T02:30:28.888Z,101213.08
2018-08-12T02:32:55.869Z,101221.42
2018-08-12T02:35:22.988Z,101213.28
2018-08-12T02:37:50.042Z,101205.73
2018-08-12T02:40:17.136Z,101199.42
2018-08-12T02:42:44.128Z,101207.11
2018-08-12T02:45:13.424Z,101205.53
2018-08-12T02:47:40.438Z,101196.92
2018-08-12T02:50:07.523Z,101200.11
2018-08-12T02:52:35.092Z,101194.80
2018-08-12T02:55:02.127Z,101188.98
2018-08-12T02:57:29.128Z,101192.00
2018-08-12T02:59:56.135Z,101193.55
2018-08-12T03:02:23.211Z,101192.80
2018-08-12T03:04:50.284Z,101181.15
2018-08-12T03:07:17.380Z,101189.49
2018-08-12T03:09:44.502Z,101187.65
2018-08-12T03:12:11.529Z,101187.77
2018-08-12T03:14:38.636Z,101189.77
2018-08-12T03:17:05.673Z,101186.50
2018-08-12T03:19:32.713Z,101183.00
2018-08-12T03:21:59.719Z,101186.86
2018-08-12T03:24:27.161Z,101188.04
2018-08-12T03:26:54.200Z,101190.36
2018-08-12T03:29:21.258Z,101189.50
2018-08-12T03:31:48.268Z,101184.84
2018-08-12T03:34:15.335Z,101189.18
2018-08-12T03:36:42.355Z,101180.36
2018-08-12T03:39:10.695Z,101186.39
2018-08-12T03:41:37.688Z,101182.61
2018-08-12T03:44:04.813Z,101185.40
2018-08-12T03:46:31.903Z,101186.98
2018-08-12T03:48:58.971Z,101184.45
2018-08-12T03:51:25.936Z,101184.92
2018-08-12T03:53:52.982Z,101187.37
2018-08-12T03:56:20.015Z,101187.56
2018-08-12T03:58:47.040Z,101182.33
2018-08-12T04:01:14.037Z,101183.59
2018-08-12T04:03:41.083Z,101183.79
2018-08-12T04:06:08.082Z,101187.17
2018-08-12T04:08:35.122Z,101183.79
2018-08-12T04:11:02.164Z,101181.74
2018-08-12T04:16:10.626Z,101179.11
2018-08-12T04:18:37.636Z,101187.56
2018-08-12T04:21:04.662Z,101175.17
2018-08-12T04:23:31.707Z,101175.73
2018-08-12T04:25:58.704Z,101167.42
2018-08-12T04:28:25.727Z,101174.47
2018-08-12T04:30:52.746Z,101171.28
2018-08-12T04:33:19.746Z,101175.17
2018-08-12T04:35:46.792Z,101176.70
2018-08-12T04:38:13.811Z,101182.81
2018-08-12T04:40:40.787Z,101183.67
2018-08-12T04:43:08.239Z,101177.38
2018-08-12T04:45:35.591Z,101177.49
2018-08-12T04:48:02.592Z,101177.77
2018-08-12T04:50:29.896Z,101179.81
2018-08-12T04:52:56.882Z,101187.56
2018-08-12T04:55:23.904Z,101180.87
2018-08-12T04:57:50.890Z,101183.86
2018-08-12T05:00:42.994Z,101178.23
2018-08-12T05:03:27.993Z,101173.17
2018-08-12T05:05:57.639Z,101180.66
2018-08-12T05:08:24.847Z,101179.59
2018-08-12T05:10:51.932Z,101179.59
2018-08-12T05:13:19.030Z,101173.29
2018-08-12T05:15:46.083Z,101167.84
2018-08-12T05:18:13.291Z,101177.13
2018-08-12T05:20:40.280Z,101171.02
2018-08-12T05:23:07.296Z,101168.18
2018-08-12T05:25:34.342Z,101166.84
2018-08-12T05:28:01.328Z,101166.45
2018-08-12T05:30:28.768Z,101163.64
2018-08-12T05:32:55.795Z,101164.61
2018-08-12T05:35:22.822Z,101165.98
2018-08-12T05:37:49.903Z,101167.11
2018-08-12T05:40:17.073Z,101162.91
2018-08-12T05:42:44.173Z,101167.75
2018-08-12T05:45:11.184Z,101164.73
2018-08-12T05:47:39.107Z,101159.70
2018-08-12T05:50:07.270Z,101164.47
2018-08-12T05:52:34.618Z,101159.29
2018-08-12T05:55:02.067Z,101159.58
2018-08-12T05:57:29.090Z,101158.75
2018-08-12T05:59:56.111Z,101153.38
2018-08-12T06:02:23.157Z,101154.20
2018-08-12T06:04:50.171Z,101154.23
2018-08-12T06:07:17.184Z,101150.58
2018-08-12T06:09:44.410Z,101147.68
2018-08-12T06:12:11.469Z,101151.48
2018-08-12T06:14:38.516Z,101142.20
2018-08-12T06:17:05.742Z,101142.47
2018-08-12T06:19:32.740Z,101139.80
2018-08-12T06:21:59.775Z,101134.78
2018-08-12T06:24:27.039Z,101140.23
2018-08-12T06:26:54.052Z,101139.71
2018-08-12T06:29:21.134Z,101136.59
2018-08-12T06:31:48.608Z,101138.55
2018-08-12T06:34:15.683Z,101136.13
2018-08-12T06:36:42.660Z,101137.48
2018-08-12T06:39:10.988Z,101142.63
2018-08-12T06:41:38.095Z,101147.92
2018-08-12T06:44:05.192Z,101140.86
2018-08-12T06:46:32.207Z,101145.16
2018-08-12T06:48:59.679Z,101138.34
2018-08-12T06:51:26.760Z,101123.66
2018-08-12T06:53:53.836Z,101137.16
2018-08-12T06:56:20.862Z,101133.09
2018-08-12T06:58:47.864Z,101134.67
2018-08-12T07:01:15.212Z,101129.22
2018-08-12T07:03:42.248Z,101128.41
2018-08-12T07:06:09.294Z,101120.58
2018-08-12T07:08:36.353Z,101121.59
2018-08-12T07:11:03.391Z,101128.10
2018-08-12T07:13:30.390Z,101121.03
2018-08-12T07:15:57.480Z,101114.41
2018-08-12T07:18:24.510Z,101116.01
2018-08-12T07:20:51.551Z,101119.55
2018-08-12T07:23:18.559Z,101124.16
2018-08-12T07:25:45.567Z,101129.27
2018-08-12T07:28:12.610Z,101122.23
2018-08-12T07:30:39.628Z,101117.86
2018-08-12T07:33:06.840Z,101121.39
2018-08-12T07:35:33.888Z,101116.13
2018-08-12T07:38:00.905Z,101115.69
2018-08-12T07:40:28.276Z,101109.94
2018-08-12T07:42:55.307Z,101108.42
2018-08-12T07:45:22.331Z,101108.64
2018-08-12T07:47:49.728Z,101102.75
2018-08-12T07:50:16.763Z,101110.55
2018-08-12T07:52:44.524Z,101108.88
2018-08-12T07:55:12.499Z,101106.88
2018-08-12T07:57:39.976Z,101104.62
2018-08-12T08:00:10.351Z,101110.00
2018-08-12T08:02:37.416Z,101106.38
2018-08-12T08:05:04.705Z,101105.84
2018-08-12T08:07:31.793Z,101101.26
2018-08-12T08:09:58.811Z,101099.90
2018-08-12T08:12:25.863Z,101101.06
2018-08-12T08:14:53.196Z,101102.56
2018-08-12T08:17:20.261Z,101102.97
2018-08-12T08:19:47.431Z,101104.37
2018-08-12T08:22:14.409Z,101102.27
2018-08-12T08:24:41.428Z,101095.50
2018-08-12T08:27:08.472Z,101099.44
2018-08-12T08:29:35.537Z,101092.90
2018-08-12T08:32:02.730Z,101094.80
2018-08-12T08:34:29.617Z,101096.85
2018-08-12T08:36:56.771Z,101093.26
2018-08-12T08:39:23.812Z,101090.03
2018-08-12T08:41:50.860Z,101086.48
2018-08-12T08:44:17.896Z,101086.20
2018-08-12T08:46:45.005Z,101086.39
2018-08-12T08:49:12.061Z,101081.47
2018-08-12T08:51:39.183Z,101080.83
2018-08-12T08:54:06.199Z,101076.65
2018-08-12T08:56:33.249Z,101076.94
2018-08-12T08:59:00.300Z,101079.31
2018-08-12T09:01:27.404Z,101073.66
2018-08-12T09:03:54.646Z,101074.80
2018-08-12T09:06:21.960Z,101075.38
2018-08-12T09:08:49.391Z,101073.90
2018-08-12T09:11:16.274Z,101069.51
2018-08-12T09:13:43.295Z,101071.92
2018-08-12T09:16:10.343Z,101069.51
2018-08-12T09:18:37.429Z,101065.58
2018-08-12T09:21:04.669Z,101066.84
2018-08-12T09:23:31.661Z,101064.88
2018-08-12T09:25:58.698Z,101055.70
2018-08-12T09:28:25.712Z,101058.27
2018-08-12T09:30:52.773Z,101054.77
2018-08-12T09:33:19.782Z,101058.02
2018-08-12T09:35:46.797Z,101053.97
2018-08-12T09:38:14.003Z,101050.51
2018-08-12T09:40:41.044Z,101052.05
2018-08-12T09:43:08.180Z,101044.76
2018-08-12T09:45:35.163Z,101052.83
2018-08-12T09:48:02.185Z,101035.73
2018-08-12T09:50:29.230Z,101033.50
2018-08-12T09:52:56.390Z,101035.53
2018-08-12T09:55:23.442Z,101037.66
2018-08-12T09:57:50.499Z,101043.98
2018-08-12T10:00:23.691Z,101029.13
2018-08-12T10:02:52.651Z,101032.44
2018-08-12T10:05:19.936Z,101027.27
2018-08-12T10:07:46.985Z,101033.74
2018-08-12T10:10:14.318Z,101030.65
2018-08-12T10:12:41.969Z,101029.47
2018-08-12T10:15:09.003Z,101022.25
2018-08-12T10:17:37.439Z,101020.72
2018-08-12T10:20:05.163Z,101018.14
2018-08-12T10:22:32.315Z,101017.05
2018-08-12T10:24:59.329Z,101013.89
2018-08-12T10:27:26.575Z,101013.98
2018-08-12T10:29:53.579Z,101015.44
2018-08-12T10:32:20.664Z,101012.77
2018-08-12T10:34:47.673Z,101006.73
2018-08-12T10:37:14.694Z,100999.20
2018-08-12T10:39:41.683Z,100992.23
2018-08-12T10:42:08.715Z,100996.56
2018-08-12T10:44:35.708Z,100988.52
2018-08-12T10:47:02.729Z,100984.65
2018-08-12T10:49:29.776Z,100983.58
2018-08-12T10:51:56.875Z,100980.53
2018-08-12T10:54:23.992Z,100977.42
2018-08-12T10:56:51.404Z,100992.78
2018-08-12T10:59:18.451Z,100995.09
2018-08-12T11:01:45.675Z,100982.36
2018-08-12T11:04:12.728Z,100975.24
2018-08-12T11:06:39.748Z,100979.78
2018-08-12T11:09:07.702Z,100979.81
2018-08-12T11:11:34.995Z,100981.78
2018-08-12T11:14:02.257Z,100973.95
2018-08-12T11:16:29.395Z,100974.78
2018-08-12T11:18:56.378Z,100979.97
2018-08-12T11:21:23.383Z,100976.97
2018-08-12T11:23:50.403Z,100985.02
2018-08-12T11:26:17.459Z,100985.78
2018-08-12T11:28:44.475Z,100991.08
2018-08-12T11:31:11.483Z,100980.57
2018-08-12T11:33:38.471Z,100986.52
2018-08-12T11:36:05.596Z,100979.30
2018-08-12T11:38:32.616Z,100971.66
2018-08-12T11:40:59.660Z,100968.77
2018-08-12T11:43:26.670Z,100964.20
2018-08-12T11:45:53.859Z,100954.98
2018-08-12T11:48:21.032Z,100962.20
2018-08-12T11:50:48.064Z,100956.70
2018-08-12T11:53:15.071Z,100947.24
2018-08-12T11:55:42.128Z,100948.23
2018-08-12T11:58:09.262Z,100947.91
2018-08-12T12:00:36.334Z,100948.30
2018-08-12T12:03:03.381Z,100945.23
2018-08-12T12:05:30.379Z,100942.77
2018-08-12T12:07:57.696Z,100941.83
2018-08-12T12:10:24.704Z,100947.55
2018-08-12T12:12:52.427Z,100940.84
2018-08-12T12:15:19.777Z,100939.95
2018-08-12T12:17:46.948Z,100928.83
2018-08-12T12:20:14.786Z,100939.28
2018-08-12T12:22:43.358Z,100941.81
2018-08-12T12:25:13.680Z,100942.92
2018-08-12T12:27:40.833Z,100935.02
2018-08-12T12:30:11.362Z,100928.56
2018-08-12T12:32:38.402Z,100930.01
2018-08-12T12:35:05.767Z,100935.94
2018-08-12T12:37:32.791Z,100945.66
2018-08-12T12:39:59.785Z,100937.03
2018-08-12T12:42:26.866Z,100847.91
2018-08-12T12:44:53.869Z,100922.28
2018-08-12T12:47:20.949Z,100927.16
2018-08-12T12:49:47.948Z,100915.05
2018-08-12T12:52:14.980Z,100920.05
2018-08-12T12:54:42.019Z,100911.05
2018-08-12T12:57:09.516Z,100913.36
2018-08-12T12:59:36.573Z,100908.80
2018-08-12T13:02:03.632Z,100904.80
2018-08-12T13:04:30.646Z,100899.02
2018-08-12T13:06:57.647Z,100896.27
2018-08-12T13:09:25.061Z,100896.56
2018-08-12T13:11:59.095Z,100894.78
2018-08-12T13:14:26.408Z,100886.04
2018-08-12T13:16:53.416Z,100884.94
2018-08-12T13:19:20.423Z,100878.34
2018-08-12T13:21:47.464Z,100871.11
2018-08-12T13:24:14.502Z,100868.25
2018-08-12T13:26:41.474Z,100866.79
2018-08-12T13:29:08.495Z,100863.24
2018-08-12T13:31:35.488Z,100858.95
2018-08-12T13:34:02.558Z,100861.55
2018-08-12T13:36:29.566Z,100859.84
2018-08-12T13:38:56.659Z,100861.63
2018-08-12T13:41:23.646Z,100852.86
2018-08-12T13:43:50.632Z,100847.41
2018-08-12T13:46:17.690Z,100849.42
2018-08-12T13:48:44.709Z,100842.58
2018-08-12T13:51:11.735Z,100849.87
2018-08-12T13:53:38.776Z,100841.30
2018-08-12T13:56:05.787Z,100841.39
2018-08-12T13:58:32.812Z,100829.14
2018-08-12T14:00:59.852Z,100825.14
2018-08-12T14:03:26.904Z,100828.66
2018-08-12T14:05:53.895Z,100825.42
2018-08-12T14:08:20.963Z,100815.75
2018-08-12T14:10:48.377Z,100815.44
2018-08-12T14:13:15.408Z,100809.45
2018-08-12T14:15:42.528Z,100804.97
2018-08-12T14:18:09.519Z,100802.65
2018-08-12T14:20:36.875Z,100796.56
2018-08-12T14:23:03.920Z,100795.03
2018-08-12T14:25:30.939Z,100794.20
2018-08-12T14:27:57.986Z,100795.80
2018-08-12T14:30:25.025Z,100788.84
2018-08-12T14:32:52.045Z,100786.37
2018-08-12T14:35:19.125Z,100789.79
2018-08-12T14:37:46.319Z,100792.13
2018-08-12T14:40:13.792Z,100788.25
2018-08-12T14:42:41.060Z,100781.97
2018-08-12T14:45:09.924Z,100781.53
2018-08-12T14:47:38.235Z,100780.53
2018-08-12T14:50:07.376Z,100776.70
2018-08-12T14:52:34.425Z,100776.81
2018-08-12T14:55:04.524Z,100774.73
2018-08-12T14:57:35.236Z,100771.28
2018-08-12T15:00:05.295Z,100768.29
2018-08-12T15:02:32.408Z,100766.61
2018-08-12T15:04:59.633Z,100765.34
2018-08-12T15:07:26.897Z,100761.00
2018-08-12T15:09:53.931Z,100758.16
2018-08-12T15:12:21.015Z,100755.13
2018-08-12T15:14:48.112Z,100755.09
2018-08-12T15:17:15.541Z,100749.02
2018-08-12T15:19:42.744Z,100743.56
2018-08-12T15:22:09.807Z,100739.81
2018-08-12T15:24:37.046Z,100734.36
2018-08-12T15:27:04.140Z,100730.11
2018-08-12T15:29:31.168Z,100727.44
2018-08-12T15:31:58.191Z,100727.14
2018-08-12T15:34:25.557Z,100719.77
2018-08-12T15:36:53.363Z,100718.05
2018-08-12T15:39:21.741Z,100716.45
2018-08-12T15:41:49.319Z,100717.42
2018-08-12T15:44:16.410Z,100717.00
2018-08-12T15:46:43.387Z,100706.67
2018-08-12T15:49:10.438Z,100705.69
2018-08-12T15:51:37.624Z,100702.28
2018-08-12T15:54:05.120Z,100702.34
2018-08-12T15:56:32.175Z,100698.92
2018-08-12T15:58:59.170Z,100696.47
2018-08-12T16:01:26.227Z,100695.97
2018-08-12T16:03:53.651Z,100690.02
2018-08-12T16:06:20.752Z,100688.51
2018-08-12T16:08:48.082Z,100678.67
2018-08-12T16:11:15.231Z,100670.66
2018-08-12T16:13:42.677Z,100668.66
2018-08-12T16:16:09.794Z,100664.53
2018-08-12T16:18:36.844Z,100659.19
2018-08-12T16:21:04.084Z,100657.13
2018-08-12T16:23:31.559Z,100656.30
2018-08-12T16:25:58.759Z,100652.89
2018-08-12T16:28:25.811Z,100650.41
2018-08-12T16:30:53.127Z,100642.37
2018-08-12T16:33:20.683Z,100642.52
2018-08-12T16:35:47.969Z,100634.08
2018-08-12T16:38:15.287Z,100636.27
2018-08-12T16:40:42.874Z,100627.39
2018-08-12T16:43:09.915Z,100615.95
2018-08-12T16:45:37.019Z,100621.11
2018-08-12T16:48:04.478Z,100620.27
2018-08-12T16:50:31.505Z,100613.87
2018-08-12T16:52:58.590Z,100617.71
2018-08-12T16:55:25.681Z,100616.48
2018-08-12T16:57:52.729Z,100611.00
2018-08-12T17:00:20.939Z,100602.06
2018-08-12T17:02:48.103Z,100600.79
2018-08-12T17:05:17.680Z,100600.89
2018-08-12T17:07:44.963Z,100593.19
2018-08-12T17:10:13.151Z,100599.20
2018-08-12T17:12:40.503Z,100591.96
2018-08-12T17:15:09.241Z,100591.57
2018-08-12T17:17:36.427Z,100594.98
2018-08-12T17:20:05.588Z,100590.69
2018-08-12T17:22:32.659Z,100585.14
2018-08-12T17:24:59.796Z,100590.64
2018-08-12T17:27:27.095Z,100580.42
2018-08-12T17:29:54.466Z,100579.13
2018-08-12T17:32:21.571Z,100571.89
2018-08-12T17:34:48.611Z,100570.18
2018-08-12T17:37:16.105Z,100571.41
2018-08-12T17:39:43.290Z,100561.63
2018-08-12T17:42:10.713Z,100564.17
2018-08-12T17:44:37.919Z,100557.47
2018-08-12T17:47:05.164Z,100553.95
2018-08-12T17:49:32.495Z,100554.81
2018-08-12T17:51:59.503Z,100548.80
2018-08-12T17:54:26.999Z,100542.36
2018-08-12T17:56:54.072Z,100543.58
2018-08-12T17:59:21.070Z,100543.11
2018-08-12T18:01:48.075Z,100549.91
2018-08-12T18:04:15.374Z,100548.31
2018-08-12T18:06:42.453Z,100540.55
2018-08-12T18:09:09.500Z,100545.28
2018-08-12T18:11:36.647Z,100542.63
2018-08-12T18:14:04.075Z,100541.78
2018-08-12T18:16:31.419Z,100543.47
2018-08-12T18:18:58.632Z,100541.34
2018-08-12T18:21:25.740Z,100537.51
2018-08-12T18:23:53.244Z,100536.25
2018-08-12T18:26:20.396Z,100536.56
2018-08-12T18:28:47.829Z,100537.70
2018-08-12T18:31:14.844Z,100534.70
2018-08-12T18:33:42.272Z,100535.14
2018-08-12T18:36:09.286Z,100528.64
2018-08-12T18:38:36.919Z,100524.39
2018-08-12T18:41:04.207Z,100520.14
2018-08-12T18:43:31.972Z,100525.30
2018-08-12T18:45:59.094Z,100526.58
2018-08-12T18:48:27.073Z,100521.67
2018-08-12T18:50:54.122Z,100524.23
2018-08-12T18:53:21.228Z,100520.16
2018-08-12T18:55:48.220Z,100525.00
2018-08-12T18:58:15.234Z,100518.45
2018-08-12T19:00:42.251Z,100522.17
2018-08-12T19:03:09.332Z,100521.20
2018-08-12T19:05:36.768Z,100521.19
2018-08-12T19:08:04.117Z,100516.09
2018-08-12T19:10:31.217Z,100522.95
2018-08-12T19:12:58.685Z,100525.83
2018-08-12T19:15:26.163Z,100528.07
2018-08-12T19:17:53.177Z,100525.52
2018-08-12T19:20:20.172Z,100518.94
2018-08-12T19:22:47.179Z,100522.27
2018-08-12T19:25:14.250Z,100520.09
2018-08-12T19:27:41.383Z,100502.47
2018-08-12T19:30:10.676Z,100513.23
2018-08-12T19:32:37.887Z,100519.89
2018-08-12T19:35:04.952Z,100516.50
2018-08-12T19:37:32.102Z,100514.79
2018-08-12T19:39:59.135Z,100510.56
2018-08-12T19:42:26.493Z,100510.63
2018-08-12T19:44:53.484Z,100505.02
2018-08-12T19:47:20.474Z,100503.31
2018-08-12T19:49:47.948Z,100505.80
2018-08-12T19:52:15.001Z,100506.86
2018-08-12T19:54:42.311Z,100495.75
2018-08-12T19:57:09.451Z,100495.44
2018-08-12T19:59:36.452Z,100495.91
2018-08-12T20:02:03.601Z,100487.55
2018-08-12T20:04:30.635Z,100489.23
2018-08-12T20:06:57.717Z,100484.51
2018-08-12T20:09:24.805Z,100489.95
2018-08-12T20:11:52.285Z,100488.11
2018-08-12T20:14:19.266Z,100483.02
2018-08-12T20:16:46.564Z,100486.84
2018-08-12T20:19:13.939Z,100483.38
2018-08-12T20:21:40.956Z,100484.16
2018-08-12T20:24:07.972Z,100481.41
2018-08-12T20:26:34.996Z,100476.17
2018-08-12T20:29:02.374Z,100477.80
2018-08-12T20:31:29.376Z,100471.92
2018-08-12T20:33:56.406Z,100472.77
2018-08-12T20:36:23.522Z,100472.93
2018-08-12T20:38:50.843Z,100476.75
2018-08-12T20:41:17.849Z,100468.66
2018-08-12T20:43:44.924Z,100478.01
2018-08-12T20:46:14.272Z,100471.28
2018-08-12T20:48:44.369Z,100469.95
2018-08-12T20:51:12.639Z,100470.45
2018-08-12T20:53:43.075Z,100471.90
2018-08-12T20:56:12.103Z,100465.33
2018-08-12T20:58:41.486Z,100464.41
2018-08-12T21:01:11.427Z,100461.09
2018-08-12T21:03:42.529Z,100457.41
2018-08-12T21:06:09.751Z,100456.56
2018-08-12T21:08:37.100Z,100453.14
2018-08-12T21:11:04.136Z,100452.73
2018-08-12T21:13:31.177Z,100454.17
2018-08-12T21:15:58.552Z,100450.76
2018-08-12T21:18:25.531Z,100457.20
2018-08-12T21:20:52.720Z,100451.67
2018-08-12T21:23:19.844Z,100449.06
2018-08-12T21:25:46.839Z,100450.61
2018-08-12T21:28:13.902Z,100448.02
2018-08-12T21:30:40.917Z,100443.32
2018-08-12T21:33:07.908Z,100443.13
2018-08-12T21:35:34.964Z,100436.27
2018-08-12T21:38:02.103Z,100431.66
2018-08-12T21:40:29.789Z,100431.11
2018-08-12T21:42:56.859Z,100426.22
2018-08-12T21:45:23.867Z,100428.77
2018-08-12T21:47:51.305Z,100421.83
2018-08-12T21:50:18.604Z,100418.91
2018-08-12T21:52:45.630Z,100422.24
2018-08-12T21:55:12.663Z,100416.30
2018-08-12T21:57:39.840Z,100416.03
2018-08-12T22:00:09.903Z,100411.46
2018-08-12T22:02:36.938Z,100421.62
2018-08-12T22:05:04.611Z,100420.22
2018-08-12T22:07:31.631Z,100416.93
2018-08-12T22:09:58.632Z,100421.17
2018-08-12T22:12:26.809Z,100416.69
2018-08-12T22:14:53.828Z,100418.23
2018-08-12T22:17:20.875Z,100420.37
2018-08-12T22:19:47.939Z,100415.19
2018-08-12T22:22:16.074Z,100411.39
2018-08-12T22:24:43.499Z,100408.74
2018-08-12T22:27:10.804Z,100407.40
2018-08-12T22:29:38.089Z,100406.56
2018-08-12T22:32:05.351Z,100398.09
2018-08-12T22:34:32.618Z,100400.20
2018-08-12T22:36:59.917Z,100397.67
2018-08-12T22:39:27.323Z,100397.74
2018-08-12T22:41:54.551Z,100396.95
2018-08-12T22:44:21.859Z,100393.64
2018-08-12T22:46:49.353Z,100398.30
2018-08-12T22:49:16.464Z,100398.44
2018-08-12T22:51:43.506Z,100397.74
2018-08-12T22:54:10.528Z,100398.07
2018-08-12T22:56:37.944Z,100392.28
2018-08-12T22:59:05.051Z,100383.09
2018-08-12T23:01:32.077Z,100381.18
2018-08-12T23:03:59.092Z,100382.24
2018-08-12T23:06:26.176Z,100381.59
2018-08-12T23:08:53.207Z,100383.01
2018-08-12T23:11:20.299Z,100384.49
2018-08-12T23:13:47.300Z,100381.31
2018-08-12T23:16:26.524Z,100380.21
2018-08-12T23:18:53.603Z,100379.39
2018-08-12T23:21:21.147Z,100376.05
2018-08-12T23:23:49.273Z,100370.72
2018-08-12T23:26:18.266Z,100366.51
2018-08-12T23:28:45.716Z,100364.75
2018-08-12T23:31:12.790Z,100370.28
2018-08-12T23:33:39.867Z,100363.19
2018-08-12T23:36:07.568Z,100323.31
2018-08-12T23:38:35.135Z,100367.73
2018-08-12T23:41:02.136Z,100364.66
2018-08-12T23:43:29.156Z,100360.42
2018-08-12T23:45:56.935Z,100354.92
2018-08-12T23:48:23.919Z,100345.50
2018-08-12T23:50:51.080Z,100350.92
2018-08-12T23:53:18.092Z,100343.80
2018-08-12T23:55:45.188Z,100343.28
2018-08-12T23:58:12.306Z,100344.84
